Time;durP1;ratioP1;P1;durP2;ratioP2;P2;SDS_P1;SDS_P2;PMS_P1;PMS_P2;Temp;Humidity;BMP_temperature;BMP_pressure;BME280_temperature;BME280_humidity;BME280_pressure;Samples;Min_cycle;Max_cycle;Signal;HPM_P1;HPM_P2
2023/10/13 00:00:57;;;;;;;11.40;7.25;;;;;;;9.71;99.56;93595.69;5067008;28;20129;-73
2023/10/13 00:03:25;;;;;;;7.78;5.43;;;;;;;9.46;99.98;93557.78;5067188;28;20471;-73
2023/10/13 00:05:52;;;;;;;10.32;5.80;;;;;;;9.59;99.67;93587.00;5065007;28;20077;-73
2023/10/13 00:08:20;;;;;;;9.90;5.78;;;;;;;9.56;99.67;93582.25;5062240;28;20055;-73
2023/10/13 00:10:47;;;;;;;8.93;5.85;;;;;;;9.47;100.00;93572.19;5066622;28;20049;-73
2023/10/13 00:13:15;;;;;;;9.55;5.90;;;;;;;9.46;100.00;93574.94;5066947;28;20091;-73
2023/10/13 00:15:57;;;;;;;10.73;5.32;;;;;;;9.42;100.00;93571.97;5062459;28;20132;-73
2023/10/13 00:18:26;;;;;;;10.00;5.90;;;;;;;9.47;100.00;93572.19;5062125;28;20613;-73
2023/10/13 00:20:56;;;;;;;9.70;5.78;;;;;;;9.46;100.00;93577.50;5057357;28;20072;-73
2023/10/13 00:23:26;;;;;;;8.20;5.63;;;;;;;9.46;100.00;93575.72;5063671;28;20062;-73
2023/10/13 00:25:58;;;;;;;10.35;6.18;;;;;;;9.36;100.00;93573.50;5066495;28;20094;-73
2023/10/13 00:28:26;;;;;;;9.13;5.68;;;;;;;9.31;100.00;93568.16;5066662;28;20117;-73
2023/10/13 00:31:01;;;;;;;10.13;6.00;;;;;;;9.37;100.00;93569.19;5060345;28;20580;-73
2023/10/13 00:33:28;;;;;;;9.32;5.53;;;;;;;9.29;100.00;93571.91;5066806;28;20045;-73
2023/10/13 00:35:57;;;;;;;8.18;5.55;;;;;;;9.06;100.00;93530.25;5066436;28;20051;-73
2023/10/13 00:38:27;;;;;;;9.80;5.40;;;;;;;9.30;100.00;93565.81;5065041;28;20076;-73
2023/10/13 00:40:54;;;;;;;7.82;5.72;;;;;;;9.30;100.00;93578.63;5062898;28;20045;-73
2023/10/13 00:43:37;;;;;;;11.05;6.13;;;;;;;9.16;100.00;93577.78;5067060;28;20443;-73
2023/10/13 00:46:08;;;;;;;10.32;6.90;;;;;;;9.21;100.00;93578.00;5066531;28;20048;-73
2023/10/13 00:48:43;;;;;;;9.43;5.75;;;;;;;9.21;100.00;93575.41;5059786;28;20051;-73
2023/10/13 00:51:18;;;;;;;15.50;7.03;;;;;;;9.16;100.00;93578.56;5059742;28;20049;-73
2023/10/13 00:53:47;;;;;;;8.13;7.03;;;;;;;8.99;100.00;93549.94;5059224;28;20080;-73
2023/10/13 00:56:19;;;;;;;9.25;7.13;;;;;;;9.11;100.00;93565.53;5065336;28;20048;-73
2023/10/13 00:58:46;;;;;;;11.60;6.63;;;;;;;9.12;100.00;93574.03;5066384;28;20048;-73
2023/10/13 01:01:21;;;;;;;10.32;5.88;;;;;;;9.05;100.00;93572.22;5064461;28;20117;-73
2023/10/13 01:03:50;;;;;;;10.03;7.17;;;;;;;8.93;100.00;93566.84;5065156;28;20059;-73
2023/10/13 01:06:17;;;;;;;14.00;9.38;;;;;;;9.02;100.00;93579.50;5066834;28;20281;-73
2023/10/13 01:08:50;;;;;;;16.65;11.27;;;;;;;9.02;100.00;93569.25;5064491;28;20411;-73
2023/10/13 01:11:17;;;;;;;14.27;9.00;;;;;;;9.08;100.00;93573.63;5067345;28;20041;-73
2023/10/13 01:13:47;;;;;;;13.02;8.70;;;;;;;9.07;100.00;93572.81;5070173;28;20054;-73
2023/10/13 01:16:14;;;;;;;12.15;8.68;;;;;;;9.05;100.00;93576.56;5069899;28;20048;-73
2023/10/13 01:18:47;;;;;;;13.40;7.90;;;;;;;9.00;100.00;93566.09;5062497;28;20071;-73
2023/10/13 01:21:16;;;;;;;11.18;7.95;;;;;;;9.08;100.00;93579.53;5066888;28;20140;-73
2023/10/13 01:23:46;;;;;;;12.63;7.05;;;;;;;8.98;100.00;93584.19;5069577;28;20053;-73
2023/10/13 01:26:13;;;;;;;12.48;7.78;;;;;;;9.06;100.00;93581.50;5059749;28;20055;-73
2023/10/13 01:28:46;;;;;;;15.00;7.80;;;;;;;8.93;100.00;93576.28;5063545;28;20056;-73
2023/10/13 01:31:17;;;;;;;13.73;7.53;;;;;;;8.85;100.00;93573.91;5066367;28;20048;-73
2023/10/13 01:33:44;;;;;;;13.13;7.57;;;;;;;8.71;100.00;93567.91;5066465;28;20041;-73
2023/10/13 01:36:12;;;;;;;12.10;7.28;;;;;;;8.59;100.00;93557.41;5066919;28;20349;-73
2023/10/13 01:38:42;;;;;;;11.15;7.43;;;;;;;8.71;100.00;93571.28;5065318;28;20139;-73
2023/10/13 01:41:09;;;;;;;11.98;6.32;;;;;;;8.66;100.00;93576.94;5069981;28;20058;-73
2023/10/13 01:43:36;;;;;;;10.90;7.07;;;;;;;8.56;100.00;93579.06;5068037;28;20044;-73
2023/10/13 01:46:03;;;;;;;9.82;6.60;;;;;;;8.55;100.00;93587.72;5069656;28;20048;-72
2023/10/13 01:48:32;;;;;;;8.70;6.30;;;;;;;8.54;100.00;93591.25;5069621;28;20086;-73
2023/10/13 01:51:05;;;;;;;12.50;7.22;;;;;;;8.48;100.00;93597.88;5063299;28;20055;-73
2023/10/13 01:53:32;;;;;;;11.38;6.40;;;;;;;8.49;100.00;93589.25;5067172;28;20045;-73
2023/10/13 01:55:58;;;;;;;9.85;6.10;;;;;;;8.49;100.00;93589.25;5067558;28;20056;-72
2023/10/13 01:58:28;;;;;;;13.45;7.75;;;;;;;8.46;100.00;93588.84;5068531;28;20211;-72
2023/10/13 02:00:56;;;;;;;11.40;6.95;;;;;;;8.39;100.00;93579.31;5069021;28;20114;-72
2023/10/13 02:03:23;;;;;;;10.43;6.68;;;;;;;8.33;100.00;93564.69;5069069;28;20056;-73
2023/10/13 02:05:52;;;;;;;10.45;6.60;;;;;;;8.41;100.00;93579.94;5063168;28;20056;-73
2023/10/13 02:08:23;;;;;;;10.15;6.32;;;;;;;8.38;100.00;93574.41;5069232;28;20139;-73
2023/10/13 02:10:49;;;;;;;10.38;6.13;;;;;;;8.42;100.00;93573.84;5068601;28;20056;-74
2023/10/13 02:13:19;;;;;;;8.95;6.57;;;;;;;8.34;100.00;93568.06;5062078;28;20420;-74
2023/10/13 02:15:48;;;;;;;10.10;6.68;;;;;;;8.23;100.00;93561.69;5067972;28;20053;-74
2023/10/13 02:18:20;;;;;;;10.75;6.93;;;;;;;8.35;100.00;93574.75;5065293;28;20586;-74
2023/10/13 02:20:54;;;;;;;11.38;6.68;;;;;;;8.29;100.00;93571.97;5068362;28;20053;-74
2023/10/13 02:23:21;;;;;;;10.88;6.85;;;;;;;8.29;100.00;93571.97;5066719;28;20793;-74
2023/10/13 02:25:47;;;;;;;12.95;7.75;;;;;;;8.23;100.00;93571.91;5063523;28;20059;-75
2023/10/13 02:28:14;;;;;;;13.05;7.50;;;;;;;8.23;100.00;93574.47;5069023;28;20053;-75
2023/10/13 02:30:44;;;;;;;10.75;7.40;;;;;;;8.19;100.00;93570.72;5061525;28;20056;-75
2023/10/13 02:33:20;;;;;;;11.55;7.43;;;;;;;8.23;100.00;93567.59;5062292;28;20163;-74
2023/10/13 02:35:53;;;;;;;14.98;8.85;;;;;;;8.23;100.00;93572.72;5067403;28;20148;-74
2023/10/13 02:38:34;;;;;;;13.55;8.23;;;;;;;8.22;100.00;93572.88;5066593;28;20102;-73
2023/10/13 02:41:05;;;;;;;13.68;8.90;;;;;;;8.20;100.00;93572.28;5068557;28;20044;-74
2023/10/13 02:43:33;;;;;;;15.35;8.48;;;;;;;8.18;100.00;93564.03;5068626;28;20060;-74
2023/10/13 02:46:01;;;;;;;12.07;7.93;;;;;;;8.13;100.00;93557.69;5066531;28;20048;-74
2023/10/13 02:48:31;;;;;;;13.15;8.70;;;;;;;8.19;100.00;93571.50;5068112;28;20094;-74
2023/10/13 02:51:01;;;;;;;17.00;8.90;;;;;;;8.06;100.00;93558.63;5067773;28;20476;-73
2023/10/13 02:53:28;;;;;;;13.30;8.32;;;;;;;8.19;100.00;93578.41;5064347;28;20409;-74
2023/10/13 02:55:58;;;;;;;14.18;7.63;;;;;;;8.16;100.00;93577.78;5067332;28;20052;-74
2023/10/13 02:58:37;;;;;;;13.73;8.90;;;;;;;8.12;100.00;93581.69;5066259;28;20045;-74
2023/10/13 03:01:15;;;;;;;11.48;7.80;;;;;;;8.13;100.00;93585.84;5064259;28;20075;-74
2023/10/13 03:03:47;;;;;;;11.25;7.72;;;;;;;8.01;100.00;93567.63;5064022;28;20057;-74
2023/10/13 03:06:15;;;;;;;12.27;7.30;;;;;;;8.11;100.00;93585.22;5063071;28;20054;-74
2023/10/13 03:08:43;;;;;;;12.95;8.27;;;;;;;8.08;100.00;93584.78;5067858;28;20044;-74
2023/10/13 03:11:09;;;;;;;12.57;7.95;;;;;;;8.13;100.00;93590.16;5067804;28;20047;-75
2023/10/13 03:13:36;;;;;;;14.40;8.38;;;;;;;8.07;100.00;93591.69;5062920;28;20072;-74
2023/10/13 03:16:11;;;;;;;14.07;8.63;;;;;;;8.07;100.00;93591.69;5063511;28;20060;-74
2023/10/13 03:18:38;;;;;;;14.40;8.50;;;;;;;7.97;100.00;93586.09;5062696;28;20448;-73
2023/10/13 03:21:07;;;;;;;11.90;8.65;;;;;;;8.06;100.00;93597.00;5065548;28;20053;-74
2023/10/13 03:23:45;;;;;;;13.43;8.18;;;;;;;7.99;100.00;93596.94;5066673;28;20566;-74
2023/10/13 03:26:11;;;;;;;14.80;8.40;;;;;;;7.92;100.00;93594.31;5067812;28;20455;-74
2023/10/13 03:28:38;;;;;;;16.20;8.98;;;;;;;7.86;100.00;93598.41;5062389;28;20045;-74
2023/10/13 03:31:07;;;;;;;13.73;8.63;;;;;;;7.86;100.00;93593.28;5064017;28;20056;-73
2023/10/13 03:33:34;;;;;;;16.55;9.05;;;;;;;7.86;100.00;93589.91;5067450;28;20055;-73
2023/10/13 03:36:05;;;;;;;13.60;8.48;;;;;;;7.82;100.00;93599.72;5061795;28;20057;-74
2023/10/13 03:38:36;;;;;;;14.30;9.13;;;;;;;7.81;100.00;93594.78;5066328;28;20137;-74
2023/10/13 03:41:12;;;;;;;16.15;9.55;;;;;;;7.78;100.00;93588.28;5065262;28;20059;-74
2023/10/13 03:43:50;;;;;;;19.00;10.35;;;;;;;7.78;100.00;93595.16;5062961;28;20416;-74
2023/10/13 03:46:21;;;;;;;18.40;9.88;;;;;;;7.82;100.00;93591.28;5060795;28;20452;-75
2023/10/13 03:49:01;;;;;;;16.95;9.50;;;;;;;7.80;100.00;93583.78;5061219;28;20741;-74
2023/10/13 03:51:31;;;;;;;16.33;10.55;;;;;;;7.71;100.00;93570.34;5066766;28;20159;-74
2023/10/13 03:54:07;;;;;;;16.27;10.65;;;;;;;7.82;100.00;93574.16;5066908;28;20554;-73
2023/10/13 03:56:39;;;;;;;16.20;9.38;;;;;;;7.75;100.00;93574.13;5066948;28;20052;-74
2023/10/13 03:59:09;;;;;;;14.95;8.48;;;;;;;7.51;100.00;93536.09;5060097;28;20504;-75
2023/10/13 04:01:45;;;;;;;14.60;8.25;;;;;;;7.71;100.00;93564.41;5067109;28;20098;-74
2023/10/13 04:04:14;;;;;;;13.73;8.57;;;;;;;7.70;100.00;93571.31;5062974;28;20131;-74
2023/10/13 04:07:13;;;;;;;14.07;8.35;;;;;;;7.70;100.00;93566.19;5063663;28;20516;-74
2023/10/13 04:15:23;;;;;;;15.23;8.80;;;;;;;7.57;100.00;93566.06;5036328;28;20055;-74
2023/10/13 04:17:50;;;;;;;17.40;9.13;;;;;;;7.51;100.00;93562.47;5063741;28;20044;-75
2023/10/13 04:20:32;;;;;;;16.08;9.10;;;;;;;7.49;100.00;93557.53;5061403;28;20052;-74
2023/10/13 04:23:19;;;;;;;14.00;8.27;;;;;;;7.48;100.00;93565.38;5067135;28;20052;-75
2023/10/13 04:26:07;;;;;;;14.38;8.82;;;;;;;7.49;100.00;93567.75;5066647;28;20045;-74
2023/10/13 04:28:50;;;;;;;17.92;9.40;;;;;;;7.51;100.00;93566.78;5062427;28;20052;-74
2023/10/13 04:31:46;;;;;;;16.38;8.27;;;;;;;7.52;100.00;93570.91;5066776;28;20056;-74
2023/10/13 04:34:19;;;;;;;15.70;9.02;;;;;;;7.52;100.00;93570.91;5062164;28;20131;-74
2023/10/13 04:36:46;;;;;;;13.70;7.85;;;;;;;7.58;100.00;93567.63;5069246;28;20045;-74
2023/10/13 04:39:19;;;;;;;16.73;9.45;;;;;;;7.54;100.00;93562.09;5071047;28;20048;-74
2023/10/13 04:41:58;;;;;;;16.17;10.00;;;;;;;7.71;100.00;93577.19;5070748;28;20052;-74
2023/10/13 04:47:17;;;;;;;15.90;9.02;;;;;;;7.74;100.00;93580.19;5068179;28;20520;-74
2023/10/13 04:49:52;;;;;;;17.58;9.23;;;;;;;7.55;100.00;93573.13;5070868;28;20045;-74
2023/10/13 04:52:45;;;;;;;21.75;11.23;;;;;;;7.52;100.00;93574.28;5066728;28;20055;-74
2023/10/13 04:55:32;;;;;;;29.13;10.68;;;;;;;7.60;100.00;93592.03;5066712;28;20045;-74
2023/10/13 05:01:09;;;;;;;33.97;10.68;;;;;;;7.53;100.00;93593.75;5067791;28;20056;-73
2023/10/13 05:03:53;;;;;;;21.45;10.32;;;;;;;7.53;100.00;93603.97;5069879;28;20138;-76
2023/10/13 05:44:56;;;;;;;17.00;9.75;;;;;;;8.12;100.00;93649.97;5087094;28;20137;-73
2023/10/13 05:47:46;;;;;;;15.15;9.38;;;;;;;8.11;100.00;93656.06;5073890;28;20131;-73
2023/10/13 05:50:29;;;;;;;19.70;11.18;;;;;;;8.21;100.00;93659.13;5085563;28;20048;-73
2023/10/13 06:29:07;;;;;;;27.98;14.23;;;;;;;10.07;100.00;93670.78;5049791;28;20066;-73
2023/10/13 06:31:35;;;;;;;25.23;13.88;;;;;;;10.24;100.00;93672.97;5045963;28;20515;-73
2023/10/13 06:34:03;;;;;;;33.72;13.65;;;;;;;10.38;100.00;93676.34;5055378;28;20056;-74
2023/10/13 06:36:33;;;;;;;29.70;13.57;;;;;;;10.51;100.00;93686.66;5078482;28;20054;-73
2023/10/13 06:41:40;;;;;;;21.52;12.15;;;;;;;10.77;100.00;93668.84;5080708;28;20043;-74
2023/10/13 06:44:14;;;;;;;23.27;12.02;;;;;;;11.02;100.00;93681.88;5084916;28;20538;-73
2023/10/13 06:46:41;;;;;;;23.65;11.98;;;;;;;11.18;100.00;93683.25;5075787;28;20047;-73
2023/10/13 06:49:10;;;;;;;26.75;11.40;;;;;;;11.34;100.00;93670.94;5068783;28;20049;-73
2023/10/13 06:51:38;;;;;;;18.88;12.38;;;;;;;11.48;100.00;93661.41;5065161;28;20138;-73
2023/10/13 06:54:11;;;;;;;23.25;11.40;;;;;;;11.66;100.00;93671.00;5072294;28;20134;-73
2023/10/13 06:56:39;;;;;;;22.52;13.27;;;;;;;11.86;100.00;93672.72;5065812;28;20087;-73
2023/10/13 06:59:07;;;;;;;23.40;14.18;;;;;;;11.97;100.00;93654.03;5074071;28;20500;-73
2023/10/13 07:01:38;;;;;;;22.33;12.20;;;;;;;12.14;100.00;93664.66;5076944;28;20044;-73
2023/10/13 07:04:11;;;;;;;24.65;12.45;;;;;;;12.34;100.00;93671.47;5079347;28;20517;-73
2023/10/13 07:06:48;;;;;;;23.27;11.95;;;;;;;12.45;100.00;93654.53;5068045;28;20055;-74
2023/10/13 07:09:39;;;;;;;27.20;11.95;;;;;;;12.56;100.00;93643.53;5060960;28;20144;-74
2023/10/13 07:12:06;;;;;;;23.45;10.48;;;;;;;12.79;99.93;93644.78;5070835;28;20128;-73
2023/10/13 07:14:34;;;;;;;19.40;10.70;;;;;;;12.93;96.43;93652.38;5076184;28;20055;-73
2023/10/13 07:17:04;;;;;;;19.85;11.10;;;;;;;13.15;96.14;93646.81;5086261;28;20158;-73
2023/10/13 07:19:33;;;;;;;17.75;10.05;;;;;;;13.29;95.91;93652.59;5073164;28;20136;-73
2023/10/13 07:22:19;;;;;;;19.80;10.35;;;;;;;13.29;94.83;93655.19;5070983;28;20507;-74
2023/10/13 07:24:48;;;;;;;20.23;10.43;;;;;;;13.54;93.77;93657.72;5068351;28;20408;-74
2023/10/13 07:27:22;;;;;;;24.15;11.23;;;;;;;13.60;94.01;93662.00;5066179;28;20114;-74
2023/10/13 07:29:55;;;;;;;16.98;9.32;;;;;;;13.76;91.14;93654.69;5062671;28;20111;-74
2023/10/13 07:32:25;;;;;;;17.35;9.30;;;;;;;13.73;90.11;93653.31;5074398;28;20246;-74
2023/10/13 07:34:55;;;;;;;20.05;9.25;;;;;;;13.87;89.16;93653.94;5072432;28;20508;-74
2023/10/13 07:37:27;;;;;;;22.48;9.55;;;;;;;14.07;89.36;93663.19;5075059;28;20093;-74
2023/10/13 07:39:57;;;;;;;23.40;9.60;;;;;;;14.30;87.36;93657.31;5080524;28;20158;-74
2023/10/13 07:42:30;;;;;;;16.35;9.32;;;;;;;14.50;87.75;93653.66;5082569;28;20050;-74
2023/10/13 07:44:57;;;;;;;19.60;8.30;;;;;;;14.74;84.34;93658.03;5067211;28;20052;-75
2023/10/13 07:47:26;;;;;;;16.10;7.50;;;;;;;14.88;83.33;93650.88;5078954;28;20443;-74
2023/10/13 07:49:56;;;;;;;19.48;7.15;;;;;;;15.00;83.36;93625.03;5070265;28;20047;-74
2023/10/13 07:52:26;;;;;;;11.55;6.28;;;;;;;15.53;83.80;93646.53;5065928;28;20428;-74
2023/10/13 07:55:10;;;;;;;14.60;7.00;;;;;;;15.86;82.15;93654.63;5067325;28;20490;-74
2023/10/13 07:57:48;;;;;;;16.08;7.00;;;;;;;16.21;79.98;93647.75;5068029;28;20101;-74
2023/10/13 08:00:27;;;;;;;16.20;7.22;;;;;;;16.39;77.29;93641.59;5067575;28;20052;-74
2023/10/13 08:03:07;;;;;;;18.75;7.75;;;;;;;16.76;76.68;93643.69;5084952;28;20059;-74
2023/10/13 08:05:55;;;;;;;18.25;7.97;;;;;;;17.00;74.78;93656.50;5085164;28;20447;-74
2023/10/13 08:08:25;;;;;;;22.05;10.40;;;;;;;17.18;72.60;93652.06;5067393;28;20033;-74
2023/10/13 08:10:55;;;;;;;27.98;9.40;;;;;;;17.21;72.63;93646.38;5064029;28;20053;-74
2023/10/13 08:13:23;;;;;;;27.25;10.23;;;;;;;17.39;73.15;93642.72;5063590;28;20140;-74
2023/10/13 08:15:52;;;;;;;29.73;9.70;;;;;;;17.61;72.06;93641.94;5066165;28;20064;-74
2023/10/13 08:18:29;;;;;;;20.20;8.52;;;;;;;17.66;69.72;93644.59;5070471;28;20100;-74
2023/10/13 08:21:02;;;;;;;19.48;9.23;;;;;;;17.68;69.11;93652.94;5069584;28;20044;-74
2023/10/13 08:29:49;;;;;;;31.40;9.80;;;;;;;17.91;68.88;93656.28;5059004;28;20101;-74
2023/10/13 08:32:04;;;;;;;34.42;11.07;;;;;;;18.05;68.77;93651.47;5066739;28;20048;-74
2023/10/13 08:34:38;;;;;;;37.72;11.73;;;;;;;18.28;70.53;93665.25;5069144;28;20055;-75
2023/10/13 08:37:19;;;;;;;32.17;10.77;;;;;;;18.44;69.17;93668.78;5064827;28;20615;-74
2023/10/13 08:40:42;;;;;;;35.92;10.63;;;;;;;18.56;68.25;93668.59;5064877;28;20053;-74
2023/10/13 08:43:08;;;;;;;35.30;11.18;;;;;;;18.58;68.23;93611.91;5073279;28;20052;-74
2023/10/13 08:48:19;;;;;;;24.70;9.95;;;;;;;19.29;66.03;93653.47;5071501;28;20637;-74
2023/10/13 08:50:52;;;;;;;23.55;8.45;;;;;;;19.56;64.86;93655.97;5069215;28;20179;-74
2023/10/13 08:53:28;;;;;;;18.92;7.95;;;;;;;19.82;64.46;93658.66;5067581;28;20048;-75
2023/10/13 08:56:14;;;;;;;23.20;7.38;;;;;;;20.13;64.21;93653.53;5073536;28;20108;-74
2023/10/13 08:59:05;;;;;;;19.33;7.43;;;;;;;20.23;62.37;93654.59;5068558;28;20656;-75
2023/10/13 09:01:45;;;;;;;20.63;7.95;;;;;;;20.09;62.26;93662.91;5076650;28;20044;-75
2023/10/13 09:04:21;;;;;;;18.30;7.20;;;;;;;20.15;62.38;93656.66;5068100;28;20090;-74
2023/10/13 09:07:03;;;;;;;18.67;6.55;;;;;;;20.29;61.60;93650.97;5066057;28;20067;-74
2023/10/13 09:09:34;;;;;;;14.63;5.65;;;;;;;20.28;60.85;93649.41;5068644;28;20167;-74
2023/10/13 09:12:09;;;;;;;16.95;6.53;;;;;;;20.51;61.80;93649.94;5070053;28;20662;-75
2023/10/13 09:14:38;;;;;;;13.35;5.90;;;;;;;20.64;61.31;93644.16;5076846;28;20115;-74
2023/10/13 09:17:11;;;;;;;20.10;6.60;;;;;;;20.66;60.58;93656.97;5080069;28;20110;-75
2023/10/13 09:19:48;;;;;;;14.27;6.32;;;;;;;20.55;60.21;93649.13;5073948;28;20075;-75
2023/10/13 09:22:27;;;;;;;16.92;6.97;;;;;;;20.57;61.47;93651.50;5072310;28;20060;-74
2023/10/13 09:24:58;;;;;;;15.50;6.25;;;;;;;20.73;61.08;93635.84;5071937;28;20144;-75
2023/10/13 09:27:27;;;;;;;14.40;6.35;;;;;;;20.80;60.45;93618.84;5072197;28;20049;-75
2023/10/13 09:29:58;;;;;;;18.08;7.22;;;;;;;21.17;61.71;93635.25;5073962;28;20048;-75
2023/10/13 09:32:24;;;;;;;24.52;7.38;;;;;;;21.23;59.26;93621.13;5071499;28;20037;-74
2023/10/13 09:34:51;;;;;;;11.20;5.50;;;;;;;21.34;58.83;93608.03;5076014;28;20048;-74
2023/10/13 09:37:20;;;;;;;12.00;5.55;;;;;;;21.58;57.00;93639.53;5074415;28;20056;-74
2023/10/13 09:39:52;;;;;;;16.10;6.53;;;;;;;21.75;56.91;93636.63;5069264;28;20058;-75
2023/10/13 09:42:18;;;;;;;11.35;5.45;;;;;;;21.97;56.51;93627.63;5079147;28;20044;-75
2023/10/13 09:44:51;;;;;;;;;;;;;;;22.15;56.24;93622.81;5080118;28;20055;-75
2023/10/13 09:47:24;;;;;;;10.52;4.80;;;;;;;22.33;57.32;93612.72;5071190;28;19924;-75
2023/10/13 09:50:03;;;;;;;10.88;6.55;;;;;;;22.51;55.72;93619.94;5076093;28;20041;-74
2023/10/13 09:52:31;;;;;;;15.93;5.07;;;;;;;22.61;54.71;93618.31;5073238;28;20051;-75
2023/10/13 09:55:09;;;;;;;11.50;6.05;;;;;;;22.71;53.60;93594.66;5070463;28;20054;-75
2023/10/13 09:57:44;;;;;;;11.98;5.38;;;;;;;22.94;51.57;93613.28;5072287;28;20053;-75
2023/10/13 10:03:14;;;;;;;13.48;5.50;;;;;;;23.00;52.81;93603.56;5075781;28;20073;-75
2023/10/13 10:05:41;;;;;;;10.93;5.13;;;;;;;23.19;50.63;93617.47;5070925;28;20048;-75
2023/10/13 10:08:10;;;;;;;13.07;5.57;;;;;;;23.24;51.55;93611.41;5070674;28;20164;-75
2023/10/13 10:10:52;;;;;;;10.73;5.15;;;;;;;23.23;51.02;93601.97;5073000;28;20481;-75
2023/10/13 10:13:30;;;;;;;11.27;4.78;;;;;;;23.33;52.01;93606.38;5072583;28;20052;-75
2023/10/13 10:16:02;;;;;;;11.98;4.60;;;;;;;23.15;51.55;93569.31;5069668;28;20080;-75
2023/10/13 10:18:29;;;;;;;10.95;5.22;;;;;;;23.29;51.15;93598.22;5076632;28;20171;-75
2023/10/13 10:21:07;;;;;;;9.52;4.63;;;;;;;23.41;50.23;93589.25;5072218;28;20044;-75
2023/10/13 10:23:39;;;;;;;12.05;4.82;;;;;;;23.59;50.10;93596.34;5069538;28;20048;-75
2023/10/13 10:26:19;;;;;;;12.13;5.32;;;;;;;23.87;50.47;93596.50;5074489;28;20555;-74
2023/10/13 10:28:47;;;;;;;12.23;4.88;;;;;;;24.14;50.56;93583.81;5081142;28;20056;-74
2023/10/13 10:31:17;;;;;;;11.43;4.35;;;;;;;24.13;47.70;93582.25;5068828;28;20044;-75
2023/10/13 10:33:46;;;;;;;8.82;3.95;;;;;;;24.27;47.15;93582.31;5072750;28;20350;-75
2023/10/13 10:36:14;;;;;;;10.90;5.00;;;;;;;24.55;46.72;93585.81;5069113;28;20131;-75
2023/10/13 10:38:54;;;;;;;7.18;3.50;;;;;;;24.33;44.94;93578.53;5069519;28;20041;-75
2023/10/13 10:41:29;;;;;;;6.72;3.25;;;;;;;24.41;45.33;93570.03;5074151;28;20101;-75
2023/10/13 10:43:57;;;;;;;6.90;3.75;;;;;;;24.59;45.52;93559.75;5083732;28;20048;-75
2023/10/13 10:46:38;;;;;;;7.40;3.92;;;;;;;24.69;45.19;93575.34;5069709;28;20048;-75
2023/10/13 10:49:08;;;;;;;7.53;3.42;;;;;;;24.45;43.33;93569.44;5073633;28;20060;-75
2023/10/13 10:51:43;;;;;;;9.40;4.00;;;;;;;24.80;44.68;93577.75;5071179;28;20048;-75
2023/10/13 10:54:19;;;;;;;6.07;3.70;;;;;;;25.06;45.64;93572.84;5078046;28;20052;-75
2023/10/13 10:56:52;;;;;;;8.40;3.30;;;;;;;24.78;43.91;93561.50;5081242;28;20508;-75
2023/10/13 10:59:21;;;;;;;5.70;3.13;;;;;;;24.92;42.85;93569.44;5069171;28;20063;-75
2023/10/13 11:01:53;;;;;;;7.35;3.08;;;;;;;24.65;41.98;93571.72;5072089;28;20171;-75
2023/10/13 11:04:33;;;;;;;5.90;2.45;;;;;;;24.55;42.47;93564.81;5082696;28;20058;-75
2023/10/13 11:07:00;;;;;;;4.78;2.85;;;;;;;24.31;43.40;93567.56;5088442;28;20051;-75
2023/10/13 11:09:36;;;;;;;5.88;2.50;;;;;;;24.21;44.03;93567.72;5069755;28;20048;-75
2023/10/13 11:12:15;;;;;;;5.20;2.25;;;;;;;24.30;43.21;93563.34;5068358;28;20496;-74
2023/10/13 11:14:43;;;;;;;7.03;3.05;;;;;;;24.17;43.10;93532.59;5070167;28;20063;-75
2023/10/13 11:17:20;;;;;;;7.95;2.83;;;;;;;24.46;43.13;93552.59;5071051;28;20053;-75
2023/10/13 11:19:48;;;;;;;6.97;3.05;;;;;;;24.67;41.85;93545.94;5068536;28;20048;-75
2023/10/13 11:22:32;;;;;;;4.07;1.98;;;;;;;24.68;41.39;93554.59;5068381;28;20051;-74
2023/10/13 11:25:00;;;;;;;3.55;1.90;;;;;;;24.65;40.59;93549.91;5074629;28;20062;-75
2023/10/13 11:27:44;;;;;;;6.00;2.28;;;;;;;24.74;41.16;93521.91;5073739;28;20055;-75
2023/10/13 11:30:14;;;;;;;3.53;1.58;;;;;;;25.27;39.03;93553.28;5070867;28;20044;-75
2023/10/13 11:32:43;;;;;;;6.20;1.63;;;;;;;24.91;38.59;93544.25;5067671;28;20048;-75
2023/10/13 11:35:20;;;;;;;3.28;1.48;;;;;;;24.66;38.55;93543.59;5071869;28;20052;-75
2023/10/13 11:37:55;;;;;;;3.83;1.70;;;;;;;24.70;38.49;93547.19;5068663;28;20056;-75
2023/10/13 11:40:43;;;;;;;;;;;;;;;24.68;37.88;93544.84;5072134;28;20093;-74
2023/10/13 11:43:13;;;;;;;2.20;0.80;;;;;;;24.60;37.11;93544.75;5069848;28;19923;-75
2023/10/13 11:45:53;;;;;;;4.32;1.25;;;;;;;24.35;37.61;93491.63;5064818;28;20171;-75
2023/10/13 11:48:34;;;;;;;3.15;0.60;;;;;;;24.77;37.37;93531.06;5072733;28;20048;-75
2023/10/13 11:51:01;;;;;;;2.78;1.10;;;;;;;24.78;36.68;93530.00;5068209;28;20555;-75
2023/10/13 11:53:28;;;;;;;3.40;1.10;;;;;;;24.89;37.92;93531.38;5068649;28;20048;-75
2023/10/13 11:55:56;;;;;;;3.17;1.58;;;;;;;24.90;37.43;93527.69;5067096;28;20071;-75
2023/10/13 11:58:23;;;;;;;3.75;1.70;;;;;;;24.95;37.21;93517.06;5076528;28;20048;-75
2023/10/13 12:00:54;;;;;;;4.07;1.10;;;;;;;25.07;37.56;93510.53;5072029;28;20059;-75
2023/10/13 12:06:22;;;;;;;2.38;0.98;;;;;;;24.97;36.71;93523.88;5073066;28;20185;-75
2023/10/13 12:08:52;;;;;;;4.40;1.50;;;;;;;24.67;38.45;93511.03;5070863;28;20048;-75
2023/10/13 12:11:31;;;;;;;4.18;1.20;;;;;;;24.69;39.02;93511.50;5068063;28;20051;-74
2023/10/13 12:14:11;;;;;;;5.63;1.40;;;;;;;24.91;38.27;93502.97;5067868;28;20048;-75
2023/10/13 12:16:38;;;;;;;3.42;1.52;;;;;;;24.79;38.23;93511.31;5066042;28;20071;-75
2023/10/13 12:19:10;;;;;;;2.38;1.25;;;;;;;25.03;37.35;93510.34;5069817;28;20052;-75
2023/10/13 12:21:38;;;;;;;2.45;0.73;;;;;;;24.87;36.40;93512.50;5069729;28;20045;-75
2023/10/13 12:24:11;;;;;;;2.95;0.93;;;;;;;24.93;35.63;93502.66;5074076;28;20049;-75
2023/10/13 12:26:41;;;;;;;3.97;0.82;;;;;;;25.06;36.61;93509.78;5079209;28;20059;-76
2023/10/13 12:29:18;;;;;;;3.28;1.13;;;;;;;25.24;35.41;93504.69;5069050;28;20083;-75
2023/10/13 12:31:52;;;;;;;5.40;1.00;;;;;;;25.03;35.41;93499.06;5068067;28;20167;-75
2023/10/13 12:34:46;;;;;;;3.10;1.10;;;;;;;24.79;37.49;93494.75;5066395;28;20656;-75
2023/10/13 12:37:24;;;;;;;4.03;1.27;;;;;;;24.73;37.64;93493.31;5070289;28;20416;-75
2023/10/13 12:51:07;;;;;;;4.43;1.10;;;;;;;24.88;36.44;93493.06;5070720;28;20551;-75
2023/10/13 12:53:34;;;;;;;4.45;1.55;;;;;;;24.58;37.00;93492.53;5082666;28;20493;-75
2023/10/13 12:56:03;;;;;;;4.65;1.40;;;;;;;24.78;37.72;93488.75;5069561;28;20048;-75
2023/10/13 12:58:30;;;;;;;4.03;1.30;;;;;;;24.97;36.21;93490.50;5072977;28;20068;-75
2023/10/13 13:01:06;;;;;;;3.58;1.20;;;;;;;24.82;34.49;93488.97;5072108;28;20052;-75
2023/10/13 13:03:32;;;;;;;3.55;1.10;;;;;;;24.69;35.42;93483.41;5081793;28;20138;-75
2023/10/13 13:06:07;;;;;;;3.10;1.45;;;;;;;24.89;35.61;93484.09;5076564;28;20052;-75
2023/10/13 13:08:35;;;;;;;5.15;1.63;;;;;;;24.94;36.18;93475.31;5073107;28;20452;-75
2023/10/13 13:11:02;;;;;;;4.45;1.30;;;;;;;25.05;36.27;93484.56;5071999;28;20565;-75
2023/10/13 13:13:48;;;;;;;4.18;1.25;;;;;;;25.22;36.58;93478.69;5071376;28;20139;-75
2023/10/13 13:16:18;;;;;;;6.20;1.38;;;;;;;25.23;36.03;93482.13;5072762;28;20055;-75
2023/10/13 13:18:45;;;;;;;3.40;1.15;;;;;;;24.96;35.75;93462.69;5074807;28;20447;-75
2023/10/13 13:21:19;;;;;;;6.00;1.70;;;;;;;24.98;35.83;93483.41;5081211;28;20060;-75
2023/10/13 13:23:46;;;;;;;5.53;1.53;;;;;;;24.88;35.97;93477.28;5088857;28;20040;-75
2023/10/13 13:26:17;;;;;;;3.92;1.42;;;;;;;24.55;36.21;93486.03;5070546;28;20056;-74
2023/10/13 13:28:44;;;;;;;2.92;0.88;;;;;;;24.72;36.09;93484.66;5082382;28;20048;-74
2023/10/13 13:31:12;;;;;;;13.80;4.95;;;;;;;24.74;36.09;93485.16;5069560;28;20040;-75
2023/10/13 13:33:43;;;;;;;43.50;14.65;;;;;;;24.60;35.36;93485.13;5074542;28;20436;-75
2023/10/13 13:36:13;;;;;;;12.40;3.65;;;;;;;24.58;35.32;93489.13;5088403;28;20496;-74
2023/10/13 13:38:42;;;;;;;15.68;6.43;;;;;;;24.67;35.66;93482.13;5080542;28;20040;-75
2023/10/13 13:41:15;;;;;;;10.55;3.67;;;;;;;24.55;35.19;93483.41;5073410;28;20048;-75
2023/10/13 13:43:54;;;;;;;4.65;1.42;;;;;;;24.57;35.85;93471.81;5070063;28;20508;-75
2023/10/13 13:46:24;;;;;;;4.82;1.70;;;;;;;24.62;35.64;93477.75;5075633;28;20472;-75